sensor_id;sensor_type;location;lat;lon;timestamp;pressure;altitude;pressure_sealevel;temperature;humidity
48942;BME280;35340;52.378;4.648;2023-02-13T00:00:32;103880.59;;;16.59;63.89
48942;BME280;35340;52.378;4.648;2023-02-13T00:02:58;103879.00;;;16.63;63.91
48942;BME280;35340;52.378;4.648;2023-02-13T00:05:23;103873.00;;;16.64;63.79
48942;BME280;35340;52.378;4.648;2023-02-13T00:07:49;103879.06;;;16.64;63.80
48942;BME280;35340;52.378;4.648;2023-02-13T00:10:14;103873.00;;;16.64;63.20
48942;BME280;35340;52.378;4.648;2023-02-13T00:12:40;103879.06;;;16.64;63.25
48942;BME280;35340;52.378;4.648;2023-02-13T00:15:07;103873.13;;;16.67;62.70
48942;BME280;35340;52.378;4.648;2023-02-13T00:17:34;103873.19;;;16.69;62.48
48942;BME280;35340;52.378;4.648;2023-02-13T00:20:04;103872.31;;;16.68;62.75
48942;BME280;35340;52.378;4.648;2023-02-13T00:22:34;103878.47;;;16.70;62.32
48942;BME280;35340;52.378;4.648;2023-02-13T00:25:02;103873.19;;;16.69;62.90
48942;BME280;35340;52.378;4.648;2023-02-13T00:27:28;103867.97;;;16.69;63.05
48942;BME280;35340;52.378;4.648;2023-02-13T00:29:54;103863.75;;;16.71;62.42
48942;BME280;35340;52.378;4.648;2023-02-13T00:32:19;103865.50;;;16.72;62.39
48942;BME280;35340;52.378;4.648;2023-02-13T00:34:44;103858.47;;;16.69;62.65
48942;BME280;35340;52.378;4.648;2023-02-13T00:37:10;103855.09;;;16.72;62.33
48942;BME280;35340;52.378;4.648;2023-02-13T00:39:35;103855.09;;;16.72;62.25
48942;BME280;35340;52.378;4.648;2023-02-13T00:42:01;103856.75;;;16.70;62.62
48942;BME280;35340;52.378;4.648;2023-02-13T00:44:26;103857.66;;;16.70;62.38
48942;BME280;35340;52.378;4.648;2023-02-13T00:46:51;103859.41;;;16.71;62.31
48942;BME280;35340;52.378;4.648;2023-02-13T00:49:20;103866.34;;;16.71;62.25
48942;BME280;35340;52.378;4.648;2023-02-13T00:51:45;103854.16;;;16.70;62.42
48942;BME280;35340;52.378;4.648;2023-02-13T00:54:14;103858.53;;;16.71;62.32
48942;BME280;35340;52.378;4.648;2023-02-13T00:56:39;103865.50;;;16.72;61.92
48942;BME280;35340;52.378;4.648;2023-02-13T00:59:05;103857.69;;;16.72;62.12
48942;BME280;35340;52.378;4.648;2023-02-13T01:01:30;103856.91;;;16.73;62.03
48942;BME280;35340;52.378;4.648;2023-02-13T01:03:56;103859.50;;;16.73;61.83
48942;BME280;35340;52.378;4.648;2023-02-13T01:06:22;103851.72;;;16.74;61.54
48942;BME280;35340;52.378;4.648;2023-02-13T01:08:47;103849.09;;;16.73;61.40
48942;BME280;35340;52.378;4.648;2023-02-13T01:11:13;103846.50;;;16.73;61.50
48942;BME280;35340;52.378;4.648;2023-02-13T01:13:38;103839.56;;;16.73;61.70
48942;BME280;35340;52.378;4.648;2023-02-13T01:16:04;103843.06;;;16.74;61.39
48942;BME280;35340;52.378;4.648;2023-02-13T01:18:29;103840.44;;;16.74;61.33
48942;BME280;35340;52.378;4.648;2023-02-13T01:21:03;103842.25;;;16.75;61.44
48942;BME280;35340;52.378;4.648;2023-02-13T01:23:31;103841.41;;;16.76;61.38
48942;BME280;35340;52.378;4.648;2023-02-13T01:25:56;103844.88;;;16.76;61.42
48942;BME280;35340;52.378;4.648;2023-02-13T01:28:22;103846.69;;;16.77;61.26
48942;BME280;35340;52.378;4.648;2023-02-13T01:30:57;103845.81;;;16.77;61.26
48942;BME280;35340;52.378;4.648;2023-02-13T01:33:24;103835.41;;;16.77;60.99
48942;BME280;35340;52.378;4.648;2023-02-13T01:35:50;103850.09;;;16.76;61.15
48942;BME280;35340;52.378;4.648;2023-02-13T01:38:16;103842.28;;;16.76;61.23
48942;BME280;35340;52.378;4.648;2023-02-13T01:40:50;103842.28;;;16.76;60.91
48942;BME280;35340;52.378;4.648;2023-02-13T01:43:16;103843.19;;;16.77;60.90
48942;BME280;35340;52.378;4.648;2023-02-13T01:45:43;103849.28;;;16.77;60.90
48942;BME280;35340;52.378;4.648;2023-02-13T01:48:18;103847.56;;;16.78;61.02
48942;BME280;35340;52.378;4.648;2023-02-13T01:50:58;103844.97;;;16.78;60.63
48942;BME280;35340;52.378;4.648;2023-02-13T01:53:31;103846.75;;;16.79;60.62
48942;BME280;35340;52.378;4.648;2023-02-13T01:56:14;103844.16;;;16.79;60.39
48942;BME280;35340;52.378;4.648;2023-02-13T01:58:45;103848.63;;;16.81;60.61
48942;BME280;35340;52.378;4.648;2023-02-13T02:01:13;103851.03;;;16.78;60.70
48942;BME280;35340;52.378;4.648;2023-02-13T02:06:25;103846.75;;;16.79;60.73
48942;BME280;35340;52.378;4.648;2023-02-13T02:08:53;103849.44;;;16.80;60.43
48942;BME280;35340;52.378;4.648;2023-02-13T02:11:34;103844.22;;;16.80;60.49
48942;BME280;35340;52.378;4.648;2023-02-13T02:14:01;103839.84;;;16.79;60.44
48942;BME280;35340;52.378;4.648;2023-02-13T02:16:28;103832.84;;;16.78;60.72
48942;BME280;35340;52.378;4.648;2023-02-13T02:18:54;103837.22;;;16.79;60.42
48942;BME280;35340;52.378;4.648;2023-02-13T02:21:43;103827.63;;;16.78;60.51
48942;BME280;35340;52.378;4.648;2023-02-13T02:43:24;103824.16;;;16.78;60.49
48942;BME280;35340;52.378;4.648;2023-02-13T02:46:09;103819.78;;;16.77;60.41
48942;BME280;35340;52.378;4.648;2023-02-13T02:48:54;103821.56;;;16.78;60.05
48942;BME280;35340;52.378;4.648;2023-02-13T02:51:50;103824.16;;;16.78;60.09
48942;BME280;35340;52.378;4.648;2023-02-13T02:54:29;103819.03;;;16.79;59.95
48942;BME280;35340;52.378;4.648;2023-02-13T02:57:22;103818.97;;;16.78;60.04
48942;BME280;35340;52.378;4.648;2023-02-13T02:59:48;103822.44;;;16.78;60.18
48942;BME280;35340;52.378;4.648;2023-02-13T03:02:34;103819.84;;;16.78;60.37
48942;BME280;35340;52.378;4.648;2023-02-13T03:05:23;103818.16;;;16.79;60.13
48942;BME280;35340;52.378;4.648;2023-02-13T03:08:09;103819.03;;;16.79;60.08
48942;BME280;35340;52.378;4.648;2023-02-13T03:10:36;103820.81;;;16.80;59.70
48942;BME280;35340;52.378;4.648;2023-02-13T03:13:41;103823.41;;;16.80;59.65
48942;BME280;35340;52.378;4.648;2023-02-13T03:16:15;103820.75;;;16.79;59.60
48942;BME280;35340;52.378;4.648;2023-02-13T03:19:01;103814.63;;;16.78;59.75
48942;BME280;35340;52.378;4.648;2023-02-13T03:21:56;103808.63;;;16.79;59.89
48942;BME280;35340;52.378;4.648;2023-02-13T03:27:57;103809.44;;;16.78;59.81
48942;BME280;35340;52.378;4.648;2023-02-13T03:41:49;103807.88;;;16.82;59.72
48942;BME280;35340;52.378;4.648;2023-02-13T03:44:24;103803.56;;;16.82;59.74
48942;BME280;35340;52.378;4.648;2023-02-13T03:46:54;103801.03;;;16.84;59.95
48942;BME280;35340;52.378;4.648;2023-02-13T03:49:25;103797.59;;;16.85;59.78
48942;BME280;35340;52.378;4.648;2023-02-13T03:52:25;103798.50;;;16.85;59.82
48942;BME280;35340;52.378;4.648;2023-02-13T03:55:00;103791.59;;;16.86;59.57
48942;BME280;35340;52.378;4.648;2023-02-13T03:57:47;103794.25;;;16.88;59.71
48942;BME280;35340;52.378;4.648;2023-02-13T04:00:38;103802.94;;;16.88;59.17
48942;BME280;35340;52.378;4.648;2023-02-13T04:06:18;103801.34;;;16.92;59.84
48942;BME280;35340;52.378;4.648;2023-02-13T04:08:45;103802.25;;;16.92;59.47
48942;BME280;35340;52.378;4.648;2023-02-13T04:11:20;103793.59;;;16.93;59.42
48942;BME280;35340;52.378;4.648;2023-02-13T04:13:54;103793.59;;;16.93;59.29
48942;BME280;35340;52.378;4.648;2023-02-13T04:16:26;103790.19;;;16.94;59.37
48942;BME280;35340;52.378;4.648;2023-02-13T04:18:55;103782.31;;;16.93;59.37
48942;BME280;35340;52.378;4.648;2023-02-13T04:21:21;103783.19;;;16.93;59.50
48942;BME280;35340;52.378;4.648;2023-02-13T04:23:46;103791.00;;;16.93;59.45
48942;BME280;35340;52.378;4.648;2023-02-13T04:26:16;103785.72;;;16.92;59.31
48942;BME280;35340;52.378;4.648;2023-02-13T04:28:42;103790.03;;;16.91;59.60
48942;BME280;35340;52.378;4.648;2023-02-13T04:31:07;103786.56;;;16.91;59.60
48942;BME280;35340;52.378;4.648;2023-02-13T04:33:33;103784.84;;;16.91;59.47
48942;BME280;35340;52.378;4.648;2023-02-13T04:35:58;103789.16;;;16.91;59.63
48942;BME280;35340;52.378;4.648;2023-02-13T04:38:24;103788.28;;;16.90;59.42
48942;BME280;35340;52.378;4.648;2023-02-13T04:40:49;103789.06;;;16.88;59.14
48942;BME280;35340;52.378;4.648;2023-02-13T04:43:14;103790.03;;;16.91;59.02
48942;BME280;35340;52.378;4.648;2023-02-13T04:45:40;103789.25;;;16.92;59.34
48942;BME280;35340;52.378;4.648;2023-02-13T04:48:05;103782.13;;;16.88;59.42
48942;BME280;35340;52.378;4.648;2023-02-13T04:50:31;103787.34;;;16.88;59.46
48942;BME280;35340;52.378;4.648;2023-02-13T04:52:56;103782.13;;;16.88;59.50
48942;BME280;35340;52.378;4.648;2023-02-13T04:55:24;103783.84;;;16.88;59.41
48942;BME280;35340;52.378;4.648;2023-02-13T04:57:56;103783.78;;;16.86;59.43
48942;BME280;35340;52.378;4.648;2023-02-13T05:00:23;103782.94;;;16.87;59.36
48942;BME280;35340;52.378;4.648;2023-02-13T05:02:49;103780.34;;;16.87;59.10
48942;BME280;35340;52.378;4.648;2023-02-13T05:05:15;103777.81;;;16.89;60.09
48942;BME280;35340;52.378;4.648;2023-02-13T05:07:41;103769.16;;;16.90;59.58
48942;BME280;35340;52.378;4.648;2023-02-13T05:10:07;103773.56;;;16.91;59.32
48942;BME280;35340;52.378;4.648;2023-02-13T05:12:33;103768.28;;;16.89;59.65
48942;BME280;35340;52.378;4.648;2023-02-13T05:14:58;103774.44;;;16.91;59.41
48942;BME280;35340;52.378;4.648;2023-02-13T05:17:24;103770.13;;;16.92;59.17
48942;BME280;35340;52.378;4.648;2023-02-13T05:19:49;103765.81;;;16.92;59.20
48942;BME280;35340;52.378;4.648;2023-02-13T05:22:14;103766.78;;;16.94;59.13
48942;BME280;35340;52.378;4.648;2023-02-13T05:24:58;103768.53;;;16.95;58.85
48942;BME280;35340;52.378;4.648;2023-02-13T05:27:24;103770.34;;;16.96;59.17
48942;BME280;35340;52.378;4.648;2023-02-13T05:29:49;103773.75;;;16.95;59.01
48942;BME280;35340;52.378;4.648;2023-02-13T05:32:14;103775.53;;;16.96;58.97
48942;BME280;35340;52.378;4.648;2023-02-13T05:34:40;103774.75;;;16.99;58.94
48942;BME280;35340;52.378;4.648;2023-02-13T05:37:06;103770.38;;;16.98;59.07
48942;BME280;35340;52.378;4.648;2023-02-13T05:39:31;103772.16;;;16.99;58.84
48942;BME280;35340;52.378;4.648;2023-02-13T05:41:57;103774.75;;;16.99;59.35
48942;BME280;35340;52.378;4.648;2023-02-13T05:44:22;103774.81;;;17.00;58.75
48942;BME280;35340;52.378;4.648;2023-02-13T05:46:47;103780.00;;;17.00;58.95
48942;BME280;35340;52.378;4.648;2023-02-13T05:49:14;103775.72;;;17.01;59.01
48942;BME280;35340;52.378;4.648;2023-02-13T05:51:40;103777.47;;;17.02;58.77
48942;BME280;35340;52.378;4.648;2023-02-13T05:54:06;103777.47;;;17.02;58.99
48942;BME280;35340;52.378;4.648;2023-02-13T05:56:32;103769.66;;;17.02;58.97
48942;BME280;35340;52.378;4.648;2023-02-13T05:58:58;103767.13;;;17.03;58.78
48942;BME280;35340;52.378;4.648;2023-02-13T06:01:23;103775.88;;;17.05;58.30
48942;BME280;35340;52.378;4.648;2023-02-13T06:03:49;103779.31;;;17.04;58.43
48942;BME280;35340;52.378;4.648;2023-02-13T06:06:16;103769.72;;;17.03;58.45
48942;BME280;35340;52.378;4.648;2023-02-13T06:08:41;103773.22;;;17.04;58.42
48942;BME280;35340;52.378;4.648;2023-02-13T06:11:07;103763.69;;;17.04;58.88
48942;BME280;35340;52.378;4.648;2023-02-13T06:13:33;103765.47;;;17.05;58.27
48942;BME280;35340;52.378;4.648;2023-02-13T06:15:59;103761.22;;;17.08;58.60
48942;BME280;35340;52.378;4.648;2023-02-13T06:18:24;103765.59;;;17.09;58.55
48942;BME280;35340;52.378;4.648;2023-02-13T06:20:50;103769.44;;;17.18;58.15
48942;BME280;35340;52.378;4.648;2023-02-13T06:23:15;103765.06;;;17.17;58.25
48942;BME280;35340;52.378;4.648;2023-02-13T06:25:42;103772.09;;;17.20;57.90
48942;BME280;35340;52.378;4.648;2023-02-13T06:28:08;103764.28;;;17.20;58.12
48942;BME280;35340;52.378;4.648;2023-02-13T06:30:33;103766.00;;;17.19;58.06
48942;BME280;35340;52.378;4.648;2023-02-13T06:32:59;103769.50;;;17.20;58.02
48942;BME280;35340;52.378;4.648;2023-02-13T06:35:25;103769.44;;;17.18;58.34
48942;BME280;35340;52.378;4.648;2023-02-13T06:37:51;103764.25;;;17.18;58.58
48942;BME280;35340;52.378;4.648;2023-02-13T06:40:17;103759.84;;;17.17;58.62
48942;BME280;35340;52.378;4.648;2023-02-13T06:42:43;103760.72;;;17.18;58.25
48942;BME280;35340;52.378;4.648;2023-02-13T06:45:10;103762.63;;;17.22;58.05
48942;BME280;35340;52.378;4.648;2023-02-13T06:47:41;103765.38;;;17.25;58.08
48942;BME280;35340;52.378;4.648;2023-02-13T06:50:07;103770.69;;;17.28;58.24
48942;BME280;35340;52.378;4.648;2023-02-13T06:52:32;103771.44;;;17.25;58.45
48942;BME280;35340;52.378;4.648;2023-02-13T06:54:59;103773.03;;;17.22;58.66
48942;BME280;35340;52.378;4.648;2023-02-13T06:57:24;103770.41;;;17.20;58.55
48942;BME280;35340;52.378;4.648;2023-02-13T06:59:51;103771.22;;;17.19;59.11
48942;BME280;35340;52.378;4.648;2023-02-13T07:02:16;103772.94;;;17.19;58.72
48942;BME280;35340;52.378;4.648;2023-02-13T07:04:42;103774.66;;;17.18;58.78
48942;BME280;35340;52.378;4.648;2023-02-13T07:07:07;103772.94;;;17.19;58.96
48942;BME280;35340;52.378;4.648;2023-02-13T07:09:35;103777.25;;;17.18;58.56
48942;BME280;35340;52.378;4.648;2023-02-13T07:12:02;103785.06;;;17.18;58.86
48942;BME280;35340;52.378;4.648;2023-02-13T07:14:28;103787.66;;;17.18;58.66
48942;BME280;35340;52.378;4.648;2023-02-13T07:16:53;103793.81;;;17.20;58.19
48942;BME280;35340;52.378;4.648;2023-02-13T07:19:19;103792.22;;;17.24;57.97
48942;BME280;35340;52.378;4.648;2023-02-13T07:21:44;103791.41;;;17.25;57.72
48942;BME280;35340;52.378;4.648;2023-02-13T07:24:09;103796.59;;;17.25;57.75
48942;BME280;35340;52.378;4.648;2023-02-13T07:26:35;103795.81;;;17.27;57.43
48942;BME280;35340;52.378;4.648;2023-02-13T07:29:00;103803.69;;;17.29;57.29
48942;BME280;35340;52.378;4.648;2023-02-13T07:31:33;103795.94;;;17.31;57.45
48942;BME280;35340;52.378;4.648;2023-02-13T07:33:59;103792.50;;;17.32;57.39
48942;BME280;35340;52.378;4.648;2023-02-13T07:36:25;103797.72;;;17.32;57.34
48942;BME280;35340;52.378;4.648;2023-02-13T07:38:51;103797.75;;;17.33;57.21
48942;BME280;35340;52.378;4.648;2023-02-13T07:41:16;103796.88;;;17.33;57.65
48942;BME280;35340;52.378;4.648;2023-02-13T07:43:42;103801.13;;;17.31;57.34
48942;BME280;35340;52.378;4.648;2023-02-13T07:46:08;103792.44;;;17.30;57.09
48942;BME280;35340;52.378;4.648;2023-02-13T07:48:33;103808.94;;;17.31;57.56
48942;BME280;35340;52.378;4.648;2023-02-13T07:51:03;103800.25;;;17.30;56.95
48942;BME280;35340;52.378;4.648;2023-02-13T07:53:32;103804.59;;;17.30;57.18
48942;BME280;35340;52.378;4.648;2023-02-13T07:55:57;103808.13;;;17.32;57.30
48942;BME280;35340;52.378;4.648;2023-02-13T07:58:23;103810.75;;;17.32;57.08
48942;BME280;35340;52.378;4.648;2023-02-13T08:00:48;103806.41;;;17.32;56.98
48942;BME280;35340;52.378;4.648;2023-02-13T08:03:14;103801.22;;;17.32;57.27
48942;BME280;35340;52.378;4.648;2023-02-13T08:05:39;103805.53;;;17.32;57.07
48942;BME280;35340;52.378;4.648;2023-02-13T08:08:05;103806.41;;;17.32;56.68
48942;BME280;35340;52.378;4.648;2023-02-13T08:10:30;103810.84;;;17.35;57.17
48942;BME280;35340;52.378;4.648;2023-02-13T08:13:15;103812.56;;;17.34;56.72
48942;BME280;35340;52.378;4.648;2023-02-13T08:15:40;103810.84;;;17.35;56.96
48942;BME280;35340;52.378;4.648;2023-02-13T08:18:08;103816.94;;;17.35;56.80
48942;BME280;35340;52.378;4.648;2023-02-13T08:20:34;103816.13;;;17.36;56.64
48942;BME280;35340;52.378;4.648;2023-02-13T08:23:08;103817.00;;;17.37;57.03
48942;BME280;35340;52.378;4.648;2023-02-13T08:25:34;103809.19;;;17.37;56.69
48942;BME280;35340;52.378;4.648;2023-02-13T08:28:00;103827.47;;;17.38;56.46
48942;BME280;35340;52.378;4.648;2023-02-13T08:30:26;103814.47;;;17.38;56.56
48942;BME280;35340;52.378;4.648;2023-02-13T08:32:53;103812.75;;;17.39;57.14
48942;BME280;35340;52.378;4.648;2023-02-13T08:35:18;103808.41;;;17.39;56.50
48942;BME280;35340;52.378;4.648;2023-02-13T08:37:43;103803.22;;;17.39;56.32
48942;BME280;35340;52.378;4.648;2023-02-13T08:40:09;103797.19;;;17.40;56.20
48942;BME280;35340;52.378;4.648;2023-02-13T08:42:36;103798.00;;;17.39;56.18
48942;BME280;35340;52.378;4.648;2023-02-13T08:45:01;103801.56;;;17.41;56.92
48942;BME280;35340;52.378;4.648;2023-02-13T08:47:27;103799.84;;;17.42;56.40
48942;BME280;35340;52.378;4.648;2023-02-13T08:49:53;103805.09;;;17.43;56.39
48942;BME280;35340;52.378;4.648;2023-02-13T08:52:18;103800.78;;;17.44;56.48
48942;BME280;35340;52.378;4.648;2023-02-13T08:54:43;103805.97;;;17.44;56.02
48942;BME280;35340;52.378;4.648;2023-02-13T08:57:09;103804.28;;;17.44;56.08
48942;BME280;35340;52.378;4.648;2023-02-13T08:59:34;103804.28;;;17.44;56.10
48942;BME280;35340;52.378;4.648;2023-02-13T09:02:00;103805.16;;;17.45;56.21
48942;BME280;35340;52.378;4.648;2023-02-13T09:04:25;103808.66;;;17.45;55.98
48942;BME280;35340;52.378;4.648;2023-02-13T09:06:52;103812.13;;;17.46;55.98
48942;BME280;35340;52.378;4.648;2023-02-13T09:09:17;103811.31;;;17.47;55.98
48942;BME280;35340;52.378;4.648;2023-02-13T09:11:43;103807.00;;;17.47;55.96
48942;BME280;35340;52.378;4.648;2023-02-13T09:14:08;103804.41;;;17.47;55.95
48942;BME280;35340;52.378;4.648;2023-02-13T09:16:34;103806.19;;;17.48;55.82
48942;BME280;35340;52.378;4.648;2023-02-13T09:18:59;103810.56;;;17.50;56.16
48942;BME280;35340;52.378;4.648;2023-02-13T09:21:25;103807.94;;;17.50;55.92
48942;BME280;35340;52.378;4.648;2023-02-13T09:23:50;103804.50;;;17.51;55.78
48942;BME280;35340;52.378;4.648;2023-02-13T09:26:17;103808.06;;;17.53;55.79
48942;BME280;35340;52.378;4.648;2023-02-13T09:28:43;103808.19;;;17.56;55.98
48942;BME280;35340;52.378;4.648;2023-02-13T09:31:17;103813.47;;;17.57;55.44
48942;BME280;35340;52.378;4.648;2023-02-13T09:33:44;103811.75;;;17.58;55.46
48942;BME280;35340;52.378;4.648;2023-02-13T09:36:12;103809.13;;;17.58;55.41
48942;BME280;35340;52.378;4.648;2023-02-13T09:38:44;103808.28;;;17.59;55.40
48942;BME280;35340;52.378;4.648;2023-02-13T09:41:19;103810.88;;;17.59;55.39
48942;BME280;35340;52.378;4.648;2023-02-13T09:43:49;103804.03;;;17.61;55.33
48942;BME280;35340;52.378;4.648;2023-02-13T09:46:22;103804.91;;;17.61;55.30
48942;BME280;35340;52.378;4.648;2023-02-13T09:48:52;103801.56;;;17.64;55.23
48942;BME280;35340;52.378;4.648;2023-02-13T09:51:20;103807.72;;;17.66;54.98
48942;BME280;35340;52.378;4.648;2023-02-13T09:53:59;103797.41;;;17.69;54.95
48942;BME280;35340;52.378;4.648;2023-02-13T10:02:40;103796.06;;;17.80;54.67
48942;BME280;35340;52.378;4.648;2023-02-13T10:08:04;103797.09;;;17.84;54.53
48942;BME280;35340;52.378;4.648;2023-02-13T10:11:39;103799.72;;;17.84;54.46
48942;BME280;35340;52.378;4.648;2023-02-13T10:16:18;103797.91;;;17.83;54.70
48942;BME280;35340;52.378;4.648;2023-02-13T10:21:19;103790.97;;;17.82;54.82
48942;BME280;35340;52.378;4.648;2023-02-13T10:23:58;103785.81;;;17.83;54.73
48942;BME280;35340;52.378;4.648;2023-02-13T10:26:32;103784.09;;;17.84;54.42
48942;BME280;35340;52.378;4.648;2023-02-13T10:32:40;103788.69;;;17.91;54.41
48942;BME280;35340;52.378;4.648;2023-02-13T10:37:46;103796.59;;;17.94;54.34
48942;BME280;35340;52.378;4.648;2023-02-13T10:40:16;103795.72;;;17.94;54.19
48942;BME280;35340;52.378;4.648;2023-02-13T10:42:57;103795.72;;;17.94;54.42
48942;BME280;35340;52.378;4.648;2023-02-13T10:45:58;103791.38;;;17.94;54.22
48942;BME280;35340;52.378;4.648;2023-02-13T10:48:56;103786.94;;;17.92;54.44
48942;BME280;35340;52.378;4.648;2023-02-13T10:51:50;103791.34;;;17.93;54.23
48942;BME280;35340;52.378;4.648;2023-02-13T10:54:48;103795.72;;;17.94;54.08
48942;BME280;35340;52.378;4.648;2023-02-13T10:57:24;103786.22;;;17.96;54.28
48942;BME280;35340;52.378;4.648;2023-02-13T11:00:22;103783.69;;;17.97;54.16
48942;BME280;35340;52.378;4.648;2023-02-13T11:02:49;103775.88;;;17.97;54.07
48942;BME280;35340;52.378;4.648;2023-02-13T11:05:20;103778.47;;;17.97;54.08
48942;BME280;35340;52.378;4.648;2023-02-13T11:07:48;103774.94;;;17.95;53.93
48942;BME280;35340;52.378;4.648;2023-02-13T11:10:22;103770.53;;;17.94;53.95
48942;BME280;35340;52.378;4.648;2023-02-13T11:12:49;103774.09;;;17.96;54.01
48942;BME280;35340;52.378;4.648;2023-02-13T11:17:50;103758.56;;;17.99;53.96
48942;BME280;35340;52.378;4.648;2023-02-13T11:25:55;103756.06;;;18.02;53.86
48942;BME280;35340;52.378;4.648;2023-02-13T11:28:22;103750.81;;;18.01;53.71
48942;BME280;35340;52.378;4.648;2023-02-13T11:30:47;103759.53;;;18.01;53.93
48942;BME280;35340;52.378;4.648;2023-02-13T11:35:42;103747.31;;;18.00;53.88
48942;BME280;35340;52.378;4.648;2023-02-13T11:40:41;103737.88;;;18.04;53.68
48942;BME280;35340;52.378;4.648;2023-02-13T11:43:33;103743.91;;;18.03;53.60
48942;BME280;35340;52.378;4.648;2023-02-13T11:48:34;103736.84;;;17.99;54.06
48942;BME280;35340;52.378;4.648;2023-02-13T11:50:59;103736.84;;;17.99;53.82
48942;BME280;35340;52.378;4.648;2023-02-13T11:53:37;103733.41;;;18.00;53.87
48942;BME280;35340;52.378;4.648;2023-02-13T11:56:15;103732.69;;;18.04;53.48
48942;BME280;35340;52.378;4.648;2023-02-13T11:58:41;103728.50;;;18.09;53.50
48942;BME280;35340;52.378;4.648;2023-02-13T12:03:32;103722.47;;;18.10;53.56
48942;BME280;35340;52.378;4.648;2023-02-13T12:08:25;103719.13;;;18.14;53.28
48942;BME280;35340;52.378;4.648;2023-02-13T12:10:50;103710.47;;;18.15;53.31
48942;BME280;35340;52.378;4.648;2023-02-13T12:13:25;103717.28;;;18.12;53.38
48942;BME280;35340;52.378;4.648;2023-02-13T12:16:57;103715.53;;;18.11;53.58
48942;BME280;35340;52.378;4.648;2023-02-13T12:18:59;103708.50;;;18.08;53.76
48942;BME280;35340;52.378;4.648;2023-02-13T12:27:18;103704.22;;;18.10;53.46
48942;BME280;35340;52.378;4.648;2023-02-13T12:32:53;103693.69;;;18.07;53.32
48942;BME280;35340;52.378;4.648;2023-02-13T12:38:31;103690.13;;;18.05;53.26
48942;BME280;35340;52.378;4.648;2023-02-13T12:41:14;103699.81;;;18.07;53.51
48942;BME280;35340;52.378;4.648;2023-02-13T12:44:47;103685.84;;;18.05;53.19
48942;BME280;35340;52.378;4.648;2023-02-13T12:46:48;103684.97;;;18.06;53.40
48942;BME280;35340;52.378;4.648;2023-02-13T12:49:35;103681.50;;;18.06;53.44
48942;BME280;35340;52.378;4.648;2023-02-13T13:11:09;103676.28;;;18.06;53.42
48942;BME280;35340;52.378;4.648;2023-02-13T13:13:59;103665.00;;;18.05;53.19
48942;BME280;35340;52.378;4.648;2023-02-13T13:19:34;103664.94;;;18.04;53.76
48942;BME280;35340;52.378;4.648;2023-02-13T13:22:12;103665.75;;;18.03;53.68
48942;BME280;35340;52.378;4.648;2023-02-13T13:27:26;103663.03;;;18.00;53.78
48942;BME280;35340;52.378;4.648;2023-02-13T13:30:05;103658.69;;;17.99;53.65
48942;BME280;35340;52.378;4.648;2023-02-13T13:32:38;103656.91;;;17.98;53.43
48942;BME280;35340;52.378;4.648;2023-02-13T13:35:12;103646.47;;;17.98;52.97
48942;BME280;35340;52.378;4.648;2023-02-13T13:37:53;103643.00;;;17.97;53.36
48942;BME280;35340;52.378;4.648;2023-02-13T13:46:10;103632.44;;;17.94;53.16
48942;BME280;35340;52.378;4.648;2023-02-13T13:51:19;103631.47;;;17.91;53.07
48942;BME280;35340;52.378;4.648;2023-02-13T14:05:01;103612.19;;;17.85;52.53
48942;BME280;35340;52.378;4.648;2023-02-13T14:07:34;103610.50;;;17.86;52.45
48942;BME280;35340;52.378;4.648;2023-02-13T14:10:04;103609.56;;;17.85;52.42
48942;BME280;35340;52.378;4.648;2023-02-13T14:14:56;103608.69;;;17.85;52.07
48942;BME280;35340;52.378;4.648;2023-02-13T14:22:45;103614.69;;;17.82;52.22
48942;BME280;35340;52.378;4.648;2023-02-13T14:25:25;103617.31;;;17.82;51.96
48942;BME280;35340;52.378;4.648;2023-02-13T14:27:57;103625.13;;;17.82;51.80
48942;BME280;35340;52.378;4.648;2023-02-13T14:30:42;103619.81;;;17.81;51.96
48942;BME280;35340;52.378;4.648;2023-02-13T14:33:27;103622.41;;;17.81;51.83
48942;BME280;35340;52.378;4.648;2023-02-13T14:36:20;103612.91;;;17.81;51.97
48942;BME280;35340;52.378;4.648;2023-02-13T14:38:57;103613.72;;;17.80;51.62
48942;BME280;35340;52.378;4.648;2023-02-13T14:44:25;103611.97;;;17.79;51.54
48942;BME280;35340;52.378;4.648;2023-02-13T14:46:55;103616.34;;;17.80;51.79
48942;BME280;35340;52.378;4.648;2023-02-13T14:49:31;103611.13;;;17.80;51.66
48942;BME280;35340;52.378;4.648;2023-02-13T14:52:04;103605.09;;;17.81;51.63
48942;BME280;35340;52.378;4.648;2023-02-13T14:54:53;103602.56;;;17.83;51.69
48942;BME280;35340;52.378;4.648;2023-02-13T14:57:22;103599.94;;;17.83;51.20
48942;BME280;35340;52.378;4.648;2023-02-13T15:03:23;103595.59;;;17.82;51.01
48942;BME280;35340;52.378;4.648;2023-02-13T15:05:55;103594.75;;;17.83;51.21
48942;BME280;35340;52.378;4.648;2023-02-13T15:08:25;103596.47;;;17.82;51.26
48942;BME280;35340;52.378;4.648;2023-02-13T15:10:53;103591.25;;;17.82;51.44
48942;BME280;35340;52.378;4.648;2023-02-13T15:13:31;103595.59;;;17.82;51.40
48942;BME280;35340;52.378;4.648;2023-02-13T15:16:01;103601.69;;;17.82;51.38
48942;BME280;35340;52.378;4.648;2023-02-13T15:18:36;103594.69;;;17.81;51.31
48942;BME280;35340;52.378;4.648;2023-02-13T15:21:05;103592.06;;;17.81;51.54
48942;BME280;35340;52.378;4.648;2023-02-13T15:23:33;103594.69;;;17.81;51.28
48942;BME280;35340;52.378;4.648;2023-02-13T15:26:04;103596.38;;;17.81;51.31
48942;BME280;35340;52.378;4.648;2023-02-13T15:28:31;103596.38;;;17.81;51.49
48942;BME280;35340;52.378;4.648;2023-02-13T15:31:03;103582.47;;;17.80;51.48
48942;BME280;35340;52.378;4.648;2023-02-13T15:33:42;103590.28;;;17.80;51.54
48942;BME280;35340;52.378;4.648;2023-02-13T15:36:22;103587.69;;;17.80;51.25
48942;BME280;35340;52.378;4.648;2023-02-13T15:39:00;103593.75;;;17.81;51.43